Time;durP1;ratioP1;P1;durP2;ratioP2;P2;SDS_P1;SDS_P2;PMS_P1;PMS_P2;Temp;Humidity;BMP_temperature;BMP_pressure;BME280_temperature;BME280_humidity;BME280_pressure;Samples;Min_cycle;Max_cycle;Signal;HPM_P1;HPM_P2
2022/07/01 00:01:21;;;;;;;16.40;4.63;;;16.20;99.90;;;16.18;100.00;100717.94;4924032;28;20229;-64
2022/07/01 00:03:49;;;;;;;24.45;7.18;;;16.20;99.90;;;16.08;100.00;100697.59;4941798;28;20221;-64
2022/07/01 00:06:18;;;;;;;14.43;4.03;;;16.20;99.90;;;16.19;100.00;100682.38;4940789;28;20198;-64
2022/07/01 00:08:46;;;;;;;13.55;3.70;;;16.20;99.90;;;16.24;100.00;100687.66;4968926;28;20233;-64
2022/07/01 00:11:15;;;;;;;13.00;3.47;;;16.30;99.90;;;16.29;100.00;100677.81;4942267;28;20578;-63
2022/07/01 00:13:43;;;;;;;20.77;5.78;;;16.30;99.90;;;16.38;100.00;100688.41;4929954;28;20233;-64
2022/07/01 00:16:11;;;;;;;17.77;5.15;;;16.30;99.90;;;16.26;100.00;100713.44;4941359;28;20237;-64
2022/07/01 00:18:39;;;;;;;17.23;5.15;;;16.30;99.90;;;16.06;100.00;100723.41;4924128;28;20229;-64
2022/07/01 00:21:07;;;;;;;17.20;4.70;;;16.20;99.90;;;16.15;100.00;100701.09;4942602;28;20220;-64
2022/07/01 00:23:42;;;;;;;19.73;5.10;;;16.20;99.90;;;15.94;100.00;100696.84;4938491;28;20206;-64
2022/07/01 00:26:10;;;;;;;10.45;2.92;;;16.10;99.90;;;16.17;100.00;100712.63;4947105;28;20212;-64
2022/07/01 00:28:38;;;;;;;15.20;4.35;;;16.20;99.90;;;16.15;100.00;100741.13;4933679;28;20236;-64
2022/07/01 00:31:06;;;;;;;15.60;4.22;;;16.20;99.90;;;16.22;100.00;100756.16;4942642;28;20660;-64
2022/07/01 00:33:34;;;;;;;18.52;5.03;;;16.20;99.90;;;16.13;100.00;100758.91;4940151;28;20233;-64
2022/07/01 00:36:02;;;;;;;15.93;4.45;;;16.20;99.90;;;15.89;100.00;100752.00;4923383;28;20233;-64
2022/07/01 00:38:30;;;;;;;14.75;4.43;;;16.10;99.90;;;16.07;100.00;100769.63;4951942;28;20237;-64
2022/07/01 00:40:58;;;;;;;15.07;4.30;;;16.10;99.90;;;15.98;100.00;100760.81;4957227;28;21672;-64
2022/07/01 00:43:26;;;;;;;17.75;5.15;;;16.00;99.90;;;16.02;100.00;100759.00;4938031;28;20221;-64
2022/07/01 00:46:14;;;;;;;17.92;4.80;;;16.10;99.90;;;16.06;100.00;100771.41;4940359;28;20224;-64
2022/07/01 00:48:49;;;;;;;15.75;4.30;;;16.00;99.90;;;15.89;100.00;100749.31;4924565;28;20247;-64
2022/07/01 00:51:19;;;;;;;18.17;5.18;;;16.00;99.90;;;15.88;100.00;100752.91;4921934;28;20229;-64
2022/07/01 00:53:48;;;;;;;15.13;4.65;;;16.00;99.90;;;15.90;100.00;100754.66;4941775;28;20271;-63
2022/07/01 00:56:15;;;;;;;19.35;5.68;;;16.00;99.90;;;15.84;100.00;100768.03;4923615;28;20239;-63
2022/07/01 00:58:44;;;;;;;11.25;3.40;;;15.90;99.90;;;15.88;100.00;100799.13;4939903;28;20240;-63
2022/07/01 01:01:12;;;;;;;15.02;4.50;;;15.90;99.90;;;15.74;100.00;100813.44;4957234;28;20233;-64
2022/07/01 01:03:41;;;;;;;16.92;4.80;;;15.80;99.90;;;15.75;100.00;100808.09;4921077;28;20252;-63
2022/07/01 01:06:09;;;;;;;15.45;4.88;;;15.80;99.90;;;15.74;100.00;100787.66;4956424;28;20212;-63
2022/07/01 01:08:38;;;;;;;20.30;5.85;;;15.80;99.90;;;15.78;100.00;100777.84;4953235;28;20259;-63
2022/07/01 01:11:07;;;;;;;6.90;2.22;;;15.80;99.90;;;15.74;100.00;100762.78;4939614;28;20230;-63
2022/07/01 01:13:35;;;;;;;11.20;3.42;;;15.80;99.90;;;15.81;100.00;100762.72;4937433;28;20220;-63
2022/07/01 01:16:03;;;;;;;16.20;4.40;;;15.80;99.90;;;15.72;100.00;100744.13;4948340;28;20232;-63
2022/07/01 01:18:31;;;;;;;15.30;4.05;;;15.80;99.90;;;15.76;100.00;100769.00;4975029;28;20225;-63
2022/07/01 01:20:59;;;;;;;14.73;4.30;;;15.80;99.90;;;15.75;100.00;100770.75;4932286;28;20205;-63
2022/07/01 01:23:26;;;;;;;15.15;4.03;;;15.70;99.90;;;15.75;100.00;100773.44;4940516;28;20196;-63
2022/07/01 01:25:55;;;;;;;16.50;4.32;;;15.70;99.90;;;15.62;100.00;100751.31;4945616;28;20213;-63
2022/07/01 01:28:24;;;;;;;16.92;4.72;;;15.70;99.90;;;15.57;100.00;100739.75;4910466;28;20245;-63
2022/07/01 01:30:52;;;;;;;13.93;3.75;;;15.60;99.90;;;15.59;100.00;100740.63;4933805;28;20213;-63
2022/07/01 01:33:20;;;;;;;16.08;4.20;;;15.60;99.90;;;15.68;100.00;100761.91;4911622;28;20209;-63
2022/07/01 01:35:48;;;;;;;12.82;3.67;;;15.60;99.90;;;15.66;100.00;100765.50;4926796;28;20236;-63
2022/07/01 01:38:16;;;;;;;17.90;4.65;;;15.60;99.90;;;15.63;100.00;100757.50;4968104;28;20239;-63
2022/07/01 01:40:44;;;;;;;16.77;4.47;;;15.70;99.90;;;15.60;100.00;100765.50;4931984;28;20209;-63
2022/07/01 01:43:12;;;;;;;16.67;4.25;;;15.70;99.90;;;15.62;100.00;100783.28;4925412;28;20232;-63
2022/07/01 01:45:40;;;;;;;14.30;3.63;;;15.60;99.90;;;15.67;100.00;100784.16;4936604;28;20209;-63
2022/07/01 01:48:08;;;;;;;40.78;11.38;;;15.60;99.90;;;15.68;100.00;100769.91;4927680;28;20240;-63
2022/07/01 01:50:36;;;;;;;22.02;5.50;;;15.60;99.90;;;15.63;100.00;100776.19;4942056;28;20236;-63
2022/07/01 01:53:04;;;;;;;18.73;4.53;;;15.60;99.90;;;15.55;100.00;100780.59;4967958;28;20216;-63
2022/07/01 01:55:32;;;;;;;20.75;5.47;;;15.60;99.90;;;15.56;100.00;100791.25;4956968;28;20225;-63
2022/07/01 01:57:59;;;;;;;21.95;5.72;;;15.60;99.90;;;15.68;100.00;100798.38;4938026;28;20233;-63
2022/07/01 02:00:28;;;;;;;20.13;5.20;;;15.60;99.90;;;15.61;100.00;100797.50;4958108;28;20216;-63
2022/07/01 02:02:56;;;;;;;16.50;4.78;;;15.60;99.90;;;15.63;100.00;100795.72;4911603;28;20205;-63
2022/07/01 02:05:24;;;;;;;19.02;4.60;;;15.60;99.90;;;15.58;100.00;100810.81;4969343;28;20209;-63
2022/07/01 02:07:52;;;;;;;21.05;5.07;;;15.60;99.90;;;15.65;100.00;100820.59;4914731;28;20248;-63
2022/07/01 02:10:20;;;;;;;17.85;4.78;;;15.50;99.90;;;15.55;100.00;100805.47;4963463;28;20221;-63
2022/07/01 02:12:48;;;;;;;15.65;3.83;;;15.50;99.90;;;15.57;100.00;100793.06;4945585;28;20200;-63
2022/07/01 02:15:16;;;;;;;15.20;4.15;;;15.50;99.90;;;15.59;100.00;100801.06;4923509;28;20244;-63
2022/07/01 02:17:44;;;;;;;15.32;4.15;;;15.50;99.90;;;15.56;100.00;100801.03;4917688;28;20229;-63
2022/07/01 02:20:16;;;;;;;15.70;3.83;;;15.50;99.90;;;15.60;100.00;100806.41;4948441;28;20232;-63
2022/07/01 02:22:43;;;;;;;21.08;5.03;;;15.50;99.90;;;15.71;100.00;100816.13;4961562;28;20591;-63
2022/07/01 02:25:11;;;;;;;18.60;4.65;;;15.60;99.90;;;15.63;100.00;100795.72;4925626;28;20205;-63
2022/07/01 02:27:39;;;;;;;23.58;6.03;;;15.50;99.90;;;15.61;100.00;100793.97;4966335;28;20225;-62
2022/07/01 02:30:07;;;;;;;24.38;6.43;;;15.50;99.90;;;15.62;100.00;100793.97;4924149;28;20216;-63
2022/07/01 02:32:35;;;;;;;22.33;5.10;;;15.50;99.90;;;15.67;100.00;100800.16;4942886;28;20206;-63
2022/07/01 02:35:04;;;;;;;18.65;4.35;;;15.60;99.90;;;15.70;100.00;100783.25;4946750;28;20212;-62
2022/07/01 02:37:33;;;;;;;21.10;5.22;;;15.60;99.90;;;15.64;100.00;100761.94;4953770;28;20209;-63
2022/07/01 02:40:02;;;;;;;19.83;4.90;;;15.60;99.90;;;15.54;100.00;100752.19;4935704;28;20512;-63
2022/07/01 02:42:34;;;;;;;14.70;3.95;;;15.50;99.90;;;15.72;100.00;100768.13;4938070;28;20210;-63
2022/07/01 02:45:08;;;;;;;20.92;5.78;;;15.50;99.90;;;15.70;100.00;100769.91;4928299;28;20209;-63
2022/07/01 02:47:39;;;;;;;20.90;5.25;;;15.60;99.90;;;15.53;100.00;100775.28;4941231;28;20236;-63
2022/07/01 02:50:12;;;;;;;19.00;4.28;;;15.50;99.90;;;15.40;100.00;100788.69;4953628;28;20244;-63
2022/07/01 02:52:45;;;;;;;23.58;5.75;;;15.50;99.90;;;15.41;100.00;100787.78;4935194;28;20213;-63
2022/07/01 02:55:14;;;;;;;26.30;6.95;;;15.40;99.90;;;15.37;100.00;100793.13;4937783;28;20210;-63
2022/07/01 02:57:43;;;;;;;27.83;7.53;;;15.40;99.90;;;15.42;100.00;100803.78;4956923;28;20221;-63
2022/07/01 03:00:13;;;;;;;19.33;4.25;;;15.40;99.90;;;15.29;100.00;100792.28;4950476;28;20213;-63
2022/07/01 03:02:42;;;;;;;21.42;4.93;;;15.30;99.90;;;15.37;100.00;100800.25;4932247;28;20236;-63
2022/07/01 03:05:10;;;;;;;23.85;5.55;;;15.30;99.90;;;15.42;100.00;100802.88;4944612;28;20205;-63
2022/07/01 03:07:39;;;;;;;23.10;5.40;;;15.30;99.90;;;15.42;100.00;100768.25;4966688;28;20229;-63
2022/07/01 03:10:08;;;;;;;19.98;4.63;;;15.30;99.90;;;15.42;100.00;100746.91;4940448;28;20204;-63
2022/07/01 03:12:38;;;;;;;25.45;5.68;;;15.30;99.90;;;15.41;100.00;100722.03;4940766;28;20208;-63
2022/07/01 03:15:15;;;;;;;20.63;4.72;;;15.30;99.90;;;15.39;100.00;100729.16;4935896;28;20293;-63
2022/07/01 03:17:46;;;;;;;23.20;5.38;;;15.30;99.90;;;15.48;100.00;100750.44;4922909;28;20240;-63
2022/07/01 03:20:17;;;;;;;20.58;4.63;;;15.30;99.90;;;15.48;100.00;100742.44;4932859;28;20202;-63
2022/07/01 03:22:46;;;;;;;14.95;3.70;;;15.40;99.90;;;15.49;100.00;100748.66;4931253;28;20213;-63
2022/07/01 03:25:14;;;;;;;12.98;3.10;;;15.40;99.90;;;15.28;100.00;100742.56;4944308;28;20217;-63
2022/07/01 03:27:45;;;;;;;13.45;3.08;;;15.40;99.90;;;15.31;100.00;100771.84;4951252;28;20229;-63
2022/07/01 03:30:17;;;;;;;27.33;6.60;;;15.30;99.90;;;15.28;100.00;100784.28;4932705;28;20228;-63
2022/07/01 03:32:45;;;;;;;19.85;4.65;;;15.30;99.90;;;15.17;100.00;100768.38;4950864;28;20225;-63
2022/07/01 03:38:01;;;;;;;24.77;5.95;;;15.20;99.90;;;15.21;100.00;100758.56;4948739;28;20244;-63
2022/07/01 03:40:31;;;;;;;27.70;6.55;;;15.20;99.90;;;15.20;100.00;100755.03;4930564;28;20217;-63
2022/07/01 03:43:00;;;;;;;19.77;4.38;;;15.20;99.90;;;15.18;100.00;100767.47;4951466;28;20213;-63
2022/07/01 03:45:29;;;;;;;15.98;3.80;;;15.20;99.90;;;15.10;100.00;100776.38;4953703;28;20217;-63
2022/07/01 03:48:02;;;;;;;20.80;4.75;;;15.10;99.90;;;15.13;100.00;100779.03;4934430;28;20228;-63
2022/07/01 03:50:29;;;;;;;20.33;4.50;;;15.10;99.90;;;15.15;100.00;100774.59;4916820;28;20224;-63
2022/07/01 03:55:44;;;;;;;18.40;4.45;;;15.00;99.90;;;15.10;100.00;100821.66;4949651;28;20223;-63
2022/07/01 03:58:12;;;;;;;21.27;4.93;;;15.10;99.90;;;14.95;100.00;100818.16;4980421;28;20230;-63
2022/07/01 04:00:40;;;;;;;19.48;4.55;;;15.00;99.90;;;15.06;100.00;100834.13;4922390;28;20208;-63
2022/07/01 04:03:08;;;;;;;19.35;4.45;;;15.00;99.90;;;15.04;100.00;100843.88;4938840;28;20208;-64
2022/07/01 04:05:38;;;;;;;17.50;4.03;;;15.00;99.90;;;15.08;100.00;100868.72;4925258;28;20252;-64
2022/07/01 04:08:08;;;;;;;22.88;5.22;;;15.00;99.90;;;15.11;100.00;100871.41;4934000;28;20245;-63
2022/07/01 04:10:38;;;;;;;19.88;4.55;;;15.10;99.90;;;15.12;100.00;100874.06;4918055;28;20205;-64
2022/07/01 04:13:06;;;;;;;11.70;2.63;;;15.10;99.90;;;15.04;100.00;100863.41;4920703;28;20825;-64
2022/07/01 04:15:54;;;;;;;24.17;5.53;;;15.00;99.90;;;15.11;100.00;100872.28;4952368;28;20213;-64
2022/07/01 04:18:23;;;;;;;18.13;4.15;;;15.00;99.90;;;15.07;100.00;100858.97;4918683;28;20229;-64
2022/07/01 04:23:37;;;;;;;13.07;3.47;;;15.10;99.90;;;15.08;100.00;100877.63;4943341;28;20220;-64
2022/07/01 04:26:05;;;;;;;19.77;4.35;;;15.00;99.90;;;15.18;100.00;100891.81;4944939;29;20222;-64
2022/07/01 04:28:54;;;;;;;18.98;4.20;;;15.10;99.90;;;15.12;100.00;100887.38;4960117;28;20217;-64
2022/07/01 04:31:22;;;;;;;23.50;5.13;;;15.10;99.90;;;15.19;100.00;100894.47;4951396;28;20213;-64
2022/07/01 04:33:50;;;;;;;18.25;4.10;;;15.10;99.90;;;15.20;100.00;100914.00;4965024;28;20209;-63
2022/07/01 04:36:18;;;;;;;16.92;3.78;;;15.00;99.90;;;15.12;100.00;100902.47;4925137;28;20210;-64
2022/07/01 04:38:46;;;;;;;21.05;4.75;;;15.00;99.90;;;15.09;100.00;100884.72;4931325;28;20246;-63
2022/07/01 04:44:00;;;;;;;36.42;7.53;;;15.00;99.90;;;15.11;100.00;100930.00;4945836;28;20206;-64
2022/07/01 04:46:28;;;;;;;21.85;4.57;;;15.00;99.90;;;15.10;100.00;100936.22;4926593;28;20201;-64
2022/07/01 04:48:57;;;;;;;1.65;1.27;;;15.00;99.90;;;15.15;100.00;100934.44;4932985;28;20232;-65
2022/07/01 04:51:25;;;;;;;1.98;1.45;;;15.00;99.90;;;15.17;100.00;100924.66;4919557;28;20209;-64
2022/07/01 04:53:53;;;;;;;3.25;1.75;;;15.00;99.90;;;15.21;100.00;100905.13;4933024;28;20209;-64
2022/07/01 04:56:21;;;;;;;3.08;1.83;;;15.10;99.90;;;15.28;100.00;100902.44;4928525;28;20208;-66
2022/07/01 04:58:49;;;;;;;2.60;1.92;;;15.10;99.90;;;15.28;100.00;100881.13;4936930;28;20229;-66
2022/07/01 05:01:17;;;;;;;1.60;1.30;;;15.10;99.90;;;15.25;100.00;100870.47;4944897;28;20208;-66
2022/07/01 05:03:45;;;;;;;2.45;1.75;;;15.10;99.90;;;15.36;100.00;100879.31;4944019;28;20697;-66
2022/07/01 05:06:13;;;;;;;2.47;1.60;;;15.20;99.90;;;15.41;100.00;100886.41;4924656;28;20205;-66
2022/07/01 05:08:41;;;;;;;2.92;1.70;;;15.20;99.90;;;15.44;100.00;100891.72;4927791;28;20225;-66
2022/07/01 05:11:09;;;;;;;2.22;1.38;;;15.30;99.90;;;15.44;100.00;100907.72;4955703;28;20197;-66
2022/07/01 05:13:37;;;;;;;3.67;2.10;;;15.30;99.90;;;15.47;100.00;100916.59;4951132;28;20601;-67
2022/07/01 05:16:08;;;;;;;4.20;2.33;;;15.30;99.90;;;15.43;100.00;100901.50;4935335;28;20217;-64
2022/07/01 05:24:12;;;;;;;3.47;2.28;;;15.50;99.90;;;15.57;100.00;100909.44;4940431;28;20205;-65
2022/07/01 05:26:40;;;;;;;3.83;2.22;;;15.40;99.90;;;15.50;100.00;100903.25;4941048;28;20213;-65
2022/07/01 05:29:08;;;;;;;2.75;1.75;;;15.40;99.90;;;15.57;100.00;100882.78;4928468;28;20232;-65
2022/07/01 05:31:36;;;;;;;2.90;1.77;;;15.40;99.90;;;15.75;100.00;100905.88;4949509;28;20212;-64
2022/07/01 05:34:04;;;;;;;4.63;2.67;;;15.50;99.90;;;15.75;100.00;100943.22;4925293;28;20212;-65
2022/07/01 05:36:33;;;;;;;3.72;2.30;;;15.60;99.90;;;15.64;100.00;100940.59;4921126;28;20215;-64
2022/07/01 05:39:01;;;;;;;2.70;1.60;;;15.60;99.90;;;15.61;100.00;100935.25;4932320;29;20254;-65
2022/07/01 05:41:29;;;;;;;4.28;2.25;;;15.60;99.90;;;15.61;100.00;100960.16;4951494;28;20209;-65
2022/07/01 05:43:57;;;;;;;5.43;2.63;;;15.60;99.90;;;15.68;100.00;100963.69;4915688;29;20202;-65
2022/07/01 05:46:25;;;;;;;5.78;3.22;;;15.60;99.90;;;15.64;100.00;100960.13;4934419;28;20212;-65
2022/07/01 05:48:53;;;;;;;4.28;2.42;;;15.60;99.90;;;15.72;100.00;100945.88;4933265;28;20241;-65
2022/07/01 05:51:21;;;;;;;5.00;2.42;;;15.60;99.90;;;15.88;100.00;100963.59;4935671;28;20205;-65
2022/07/01 05:53:49;;;;;;;3.50;1.95;;;15.70;99.90;;;15.72;100.00;100964.56;4961362;28;20218;-65
2022/07/01 05:56:17;;;;;;;3.55;1.90;;;15.70;99.90;;;15.77;100.00;100974.31;4980073;28;20224;-65
2022/07/01 05:58:45;;;;;;;4.53;2.55;;;15.70;99.90;;;15.74;100.00;100974.31;4935503;28;20232;-65
2022/07/01 06:01:13;;;;;;;4.40;2.40;;;15.70;99.90;;;15.66;100.00;100931.69;4929642;28;20210;-65
2022/07/01 06:03:41;;;;;;;4.57;2.40;;;15.70;99.90;;;15.76;100.00;100945.88;4953151;28;20224;-65
2022/07/01 06:06:09;;;;;;;4.45;2.38;;;15.70;99.90;;;15.77;100.00;100939.66;4954282;28;20208;-64
2022/07/01 06:08:37;;;;;;;3.85;1.92;;;15.70;99.90;;;15.63;100.00;100929.03;4948104;28;20233;-64
2022/07/01 06:11:05;;;;;;;6.55;3.17;;;15.70;99.90;;;15.63;100.00;100923.69;4932054;28;20225;-65
2022/07/01 06:13:33;;;;;;;4.82;2.60;;;15.60;99.90;;;15.79;100.00;100944.97;4948730;28;20213;-65
2022/07/01 06:16:01;;;;;;;4.50;2.38;;;15.60;99.90;;;15.70;100.00;100937.00;4949030;28;20228;-65
2022/07/01 06:18:29;;;;;;;6.60;3.00;;;15.60;99.90;;;15.75;100.00;100956.53;4961008;28;20248;-65
2022/07/01 06:20:57;;;;;;;4.07;1.85;;;15.70;99.90;;;15.75;100.00;100965.44;4942554;28;20210;-65
2022/07/01 06:23:25;;;;;;;4.88;2.50;;;15.70;99.90;;;15.82;100.00;100979.63;4920840;28;20201;-65
2022/07/01 06:25:53;;;;;;;5.38;2.60;;;15.70;99.90;;;15.69;100.00;100978.78;4972022;28;20205;-65
2022/07/01 06:28:21;;;;;;;5.97;2.60;;;15.70;99.90;;;15.76;100.00;100985.88;4936025;28;20694;-65
2022/07/01 06:30:49;;;;;;;6.47;3.05;;;15.70;99.90;;;15.72;100.00;100992.09;4950214;28;20626;-65
2022/07/01 06:33:17;;;;;;;4.72;2.00;;;15.70;99.90;;;15.75;100.00;101005.44;4937800;28;20216;-65
2022/07/01 06:35:45;;;;;;;9.05;3.95;;;15.70;99.90;;;15.88;100.00;101019.63;4946019;28;20214;-65
2022/07/01 06:38:13;;;;;;;9.90;4.15;;;15.80;99.90;;;16.02;100.00;101025.78;4944411;28;20697;-65
2022/07/01 06:40:40;;;;;;;8.52;3.08;;;15.80;99.90;;;16.10;100.00;101031.09;4936120;28;20197;-65
2022/07/01 06:43:08;;;;;;;10.57;3.65;;;15.90;99.90;;;16.12;100.00;101011.50;4955254;28;20205;-65
2022/07/01 06:45:36;;;;;;;7.85;3.15;;;16.00;99.90;;;16.12;100.00;100983.94;4937092;28;20212;-65
2022/07/01 06:48:05;;;;;;;11.20;3.67;;;16.10;99.90;;;16.27;100.00;101006.09;4931927;29;20225;-65
2022/07/01 06:50:32;;;;;;;8.25;3.10;;;16.10;99.90;;;16.35;100.00;101008.72;4963003;28;20221;-65
2022/07/01 06:53:00;;;;;;;6.20;2.63;;;16.20;99.90;;;16.32;100.00;100988.28;4984569;28;20216;-65
2022/07/01 06:55:29;;;;;;;13.05;5.28;;;16.20;99.90;;;16.28;100.00;100964.28;4940918;28;20680;-65
2022/07/01 06:57:56;;;;;;;5.30;1.90;;;16.30;99.90;;;16.22;100.00;100969.66;4903851;28;20232;-65
2022/07/01 07:00:24;;;;;;;10.32;3.72;;;16.20;99.90;;;16.09;100.00;100968.84;4943784;28;20205;-66
2022/07/01 07:02:52;;;;;;;11.40;3.80;;;16.20;99.90;;;16.15;100.00;100997.28;4934142;28;20201;-66
2022/07/01 07:05:20;;;;;;;13.98;4.68;;;16.10;99.90;;;16.14;100.00;101003.50;4934127;28;20201;-65
2022/07/01 07:07:48;;;;;;;11.65;4.20;;;16.10;99.90;;;16.05;100.00;100995.53;4944419;28;20237;-65
2022/07/01 07:10:16;;;;;;;9.27;3.13;;;16.10;99.90;;;16.09;100.00;101005.31;4962873;28;20228;-65
2022/07/01 07:12:44;;;;;;;12.23;4.18;;;16.10;99.90;;;16.05;100.00;101011.53;4936239;28;20206;-65
2022/07/01 07:15:12;;;;;;;11.93;4.05;;;16.10;99.90;;;16.19;100.00;101042.63;4965982;28;20213;-65
2022/07/01 07:17:40;;;;;;;11.90;3.95;;;16.10;99.90;;;16.14;100.00;101036.41;4940194;28;20234;-65
2022/07/01 07:20:09;;;;;;;11.57;4.15;;;16.20;99.90;;;16.06;100.00;101018.66;4938965;28;20224;-65
2022/07/01 07:22:37;;;;;;;11.10;3.80;;;16.10;99.90;;;16.13;100.00;101023.97;4937068;28;20201;-65
2022/07/01 07:25:05;;;;;;;11.32;3.92;;;16.10;99.90;;;16.13;100.00;101017.75;4940472;28;20224;-65
2022/07/01 07:27:33;;;;;;;9.13;2.95;;;16.20;99.90;;;16.13;100.00;101017.75;4925491;28;20210;-65
2022/07/01 07:30:03;;;;;;;12.23;3.83;;;16.10;99.90;;;16.09;100.00;101021.31;4938404;28;20205;-64
2022/07/01 07:32:31;;;;;;;13.60;4.13;;;16.20;99.90;;;15.99;100.00;101026.69;4933445;28;20221;-65
2022/07/01 07:34:58;;;;;;;8.95;2.97;;;16.20;99.90;;;16.10;100.00;101056.00;4945874;28;20216;-64
2022/07/01 07:37:27;;;;;;;14.25;4.30;;;16.10;99.90;;;16.12;100.00;101088.00;4959098;28;20205;-65
2022/07/01 07:39:54;;;;;;;12.13;3.78;;;16.20;99.90;;;16.19;100.00;101105.78;4944965;28;20229;-65
2022/07/01 07:42:22;;;;;;;16.27;5.35;;;16.20;99.90;;;16.25;100.00;101109.31;4928794;28;20244;-65
2022/07/01 07:44:50;;;;;;;12.15;3.72;;;16.30;99.90;;;16.34;100.00;101132.41;4954291;28;20202;-65
2022/07/01 07:47:18;;;;;;;14.70;4.45;;;16.30;99.90;;;16.32;100.00;101142.22;4918392;28;20202;-65
2022/07/01 07:49:47;;;;;;;13.23;4.32;;;16.30;99.90;;;16.26;100.00;101129.75;4979795;28;20593;-65
2022/07/01 07:52:15;;;;;;;13.73;4.03;;;16.30;99.90;;;16.10;100.00;101097.78;4992376;28;20254;-65
2022/07/01 07:54:45;;;;;;;14.05;4.10;;;16.30;99.90;;;16.28;100.00;101079.94;4939932;28;20215;-65
2022/07/01 07:57:13;;;;;;;7.00;2.63;;;16.30;99.90;;;16.38;100.00;101071.88;4966673;28;20209;-65
2022/07/01 07:59:41;;;;;;;15.90;4.32;;;16.40;99.90;;;16.33;100.00;101053.22;4996708;28;20228;-66
2022/07/01 08:02:09;;;;;;;26.88;7.07;;;16.40;99.90;;;16.38;100.00;101054.09;4943438;28;20213;-66
2022/07/01 08:04:37;;;;;;;10.95;3.70;;;16.40;99.90;;;16.22;100.00;101033.72;4968901;28;20204;-66
2022/07/01 08:07:05;;;;;;;12.05;3.90;;;16.30;99.90;;;16.32;100.00;101039.00;4976593;28;20212;-66
2022/07/01 08:09:34;;;;;;;11.63;3.90;;;16.40;99.90;;;16.36;100.00;101031.84;4957251;28;20229;-65
2022/07/01 08:12:04;;;;;;;15.07;4.35;;;16.40;99.90;;;16.39;100.00;101041.63;4976564;28;20208;-65
2022/07/01 08:14:32;;;;;;;25.75;6.93;;;16.40;99.90;;;16.45;100.00;101044.28;4957528;28;20205;-65
2022/07/01 08:17:01;;;;;;;5.40;1.95;;;16.50;99.90;;;16.48;100.00;101055.81;4931152;28;20212;-66
2022/07/01 08:19:29;;;;;;;9.32;3.38;;;16.50;99.90;;;16.59;100.00;101056.66;4945856;28;20223;-65
2022/07/01 08:21:57;;;;;;;7.93;2.92;;;16.60;99.90;;;16.58;100.00;101065.56;4962660;28;20238;-66
2022/07/01 08:24:25;;;;;;;8.50;3.13;;;16.70;99.90;;;16.53;100.00;101055.78;4938893;28;20216;-65
2022/07/01 08:26:53;;;;;;;9.88;3.22;;;16.70;99.90;;;16.50;100.00;101050.47;5003133;28;20196;-65
2022/07/01 08:29:21;;;;;;;11.27;3.72;;;16.70;99.90;;;16.63;100.00;101081.56;4964529;28;20220;-65
2022/07/01 08:31:50;;;;;;;9.98;3.25;;;16.70;99.90;;;16.54;100.00;101063.78;4951879;28;20219;-65
2022/07/01 08:34:21;;;;;;;10.68;3.50;;;16.70;99.90;;;16.53;100.00;101064.69;4961946;28;20275;-65
2022/07/01 08:36:49;;;;;;;15.13;3.95;;;16.60;99.90;;;16.47;100.00;101047.81;4971990;28;20220;-65
2022/07/01 08:39:17;;;;;;;15.52;4.40;;;16.70;99.90;;;16.58;100.00;101033.50;4984582;28;20236;-65
2022/07/01 08:41:45;;;;;;;14.32;4.35;;;16.70;99.90;;;16.66;100.00;101032.59;4949716;28;20215;-65
2022/07/01 08:44:14;;;;;;;19.15;5.13;;;16.70;99.90;;;16.71;100.00;101071.75;4969835;28;20209;-65
2022/07/01 08:46:48;;;;;;;11.77;3.58;;;16.80;99.90;;;16.74;100.00;101084.19;4962205;28;20200;-65
2022/07/01 08:49:17;;;;;;;8.45;2.42;;;16.80;99.90;;;16.73;100.00;101079.75;4953619;28;20262;-65
2022/07/01 08:51:45;;;;;;;14.25;4.75;;;16.80;99.90;;;16.88;100.00;101104.59;4953581;28;20215;-65
2022/07/01 08:54:13;;;;;;;13.73;4.05;;;16.80;99.90;;;17.08;100.00;101135.66;4956933;28;20203;-65
2022/07/01 08:56:41;;;;;;;16.23;4.35;;;16.90;99.90;;;17.07;100.00;101136.56;4940746;28;20216;-65
2022/07/01 08:59:12;;;;;;;14.93;4.40;;;17.00;99.90;;;17.04;100.00;101129.47;4964832;28;20220;-66
2022/07/01 09:01:41;;;;;;;14.90;3.92;;;17.10;99.90;;;17.12;100.00;101140.97;4951163;28;20209;-65
2022/07/01 09:04:18;;;;;;;16.98;4.50;;;17.10;99.90;;;17.71;100.00;101170.88;4930630;28;20201;-66
2022/07/01 09:06:48;;;;;;;20.88;5.53;;;17.30;99.90;;;18.00;100.00;101150.09;4986778;28;20213;-65
2022/07/01 09:09:20;;;;;;;24.00;6.38;;;17.60;99.90;;;18.06;100.00;101109.00;4966328;28;20239;-65
2022/07/01 09:11:54;;;;;;;20.95;5.07;;;17.80;99.90;;;18.00;100.00;101084.97;4949201;28;20212;-65
2022/07/01 09:14:29;;;;;;;17.65;4.70;;;18.00;99.90;;;17.83;100.00;101058.41;4957692;28;20223;-65
2022/07/01 09:17:04;;;;;;;13.13;3.80;;;18.00;99.90;;;17.50;100.00;101003.44;4970084;28;20219;-65
2022/07/01 09:19:36;;;;;;;17.60;4.85;;;17.90;99.90;;;17.67;100.00;101036.28;4962388;28;20222;-65
2022/07/01 09:22:11;;;;;;;20.95;6.03;;;17.90;99.90;;;17.90;100.00;101012.81;4965653;28;20216;-65
2022/07/01 09:24:42;;;;;;;19.42;5.47;;;18.00;99.90;;;18.23;100.00;101014.22;4949795;28;20210;-65
2022/07/01 09:27:16;;;;;;;17.80;5.15;;;18.20;99.90;;;18.67;100.00;101082.41;4982980;28;20204;-65
2022/07/01 09:29:51;;;;;;;19.67;5.10;;;18.40;99.90;;;18.49;100.00;101037.09;4953699;28;20224;-65
2022/07/01 09:32:22;;;;;;;17.88;4.63;;;18.60;99.90;;;18.19;100.00;101016.91;4966676;28;20208;-65
2022/07/01 09:34:54;;;;;;;17.10;4.95;;;18.60;99.90;;;18.14;100.00;101022.34;4948894;28;20224;-65
2022/07/01 09:37:25;;;;;;;18.98;5.15;;;18.50;99.90;;;18.18;100.00;101009.81;4971773;28;20230;-65
2022/07/01 09:39:57;;;;;;;13.38;4.18;;;18.50;99.90;;;18.16;100.00;100990.19;4981098;28;20224;-65
2022/07/01 09:42:27;;;;;;;12.77;3.92;;;18.50;99.90;;;18.34;100.00;101016.75;4964271;28;20204;-65
2022/07/01 09:45:04;;;;;;;17.08;5.30;;;18.50;99.90;;;18.69;100.00;101066.31;4958203;28;20209;-65
2022/07/01 09:47:36;;;;;;;19.10;5.13;;;18.70;99.90;;;19.02;100.00;101040.78;4948930;28;20210;-65
2022/07/01 09:50:05;;;;;;;9.45;2.92;;;19.00;99.90;;;19.08;100.00;101040.69;4931894;28;20229;-65
2022/07/01 09:52:34;;;;;;;16.25;5.00;;;19.10;99.90;;;18.74;100.00;101016.22;4958150;28;20204;-65
2022/07/01 09:55:07;;;;;;;8.82;2.58;;;19.10;99.90;;;18.99;100.00;101003.31;4967356;28;20223;-65
2022/07/01 09:57:35;;;;;;;20.05;5.38;;;19.50;99.90;;;19.13;100.00;100990.56;4946965;28;20212;-65
2022/07/01 10:00:07;;;;;;;16.98;4.95;;;19.50;99.90;;;19.27;100.00;100999.25;4980214;28;20233;-63
2022/07/01 10:02:36;;;;;;;17.38;4.90;;;19.70;99.90;;;19.16;100.00;100995.88;4949535;28;20201;-62
2022/07/01 10:05:13;;;;;;;20.40;5.30;;;19.80;99.90;;;19.30;100.00;101001.88;4964917;28;20200;-63
2022/07/01 10:07:59;;;;;;;14.85;3.90;;;19.90;99.90;;;19.54;100.00;101031.91;4979098;28;20244;-63
2022/07/01 10:11:23;;;;;;;19.92;5.10;;;20.00;99.90;;;19.48;100.00;101031.03;4955250;28;20208;-63
2022/07/01 10:13:52;;;;;;;18.85;4.82;;;20.00;99.90;;;19.50;100.00;101001.50;4947768;28;20209;-63
2022/07/01 10:16:21;;;;;;;20.40;5.32;;;20.10;99.90;;;19.75;100.00;101043.13;4975524;28;20697;-63
2022/07/01 10:18:49;;;;;;;20.70;5.22;;;20.10;99.90;;;19.82;100.00;101030.47;4965080;28;20223;-63
2022/07/01 10:21:29;;;;;;;22.63;5.72;;;20.20;99.90;;;19.67;100.00;100983.34;4968892;28;20224;-63
2022/07/01 10:24:15;;;;;;;14.02;4.47;;;20.20;99.90;;;19.94;100.00;101040.97;4966037;28;20207;-63
2022/07/01 10:26:44;;;;;;;17.20;5.18;;;20.50;99.90;;;19.52;100.00;100972.00;4998028;28;20220;-63